createdAt,value
2019-05-10T00:02:20.937Z,13.30
2019-05-10T00:05:10.724Z,13.30
2019-05-10T00:07:58.636Z,13.30
2019-05-10T00:10:28.455Z,13.30
2019-05-10T00:13:06.454Z,13.30
2019-05-10T00:15:36.525Z,13.30
2019-05-10T00:18:06.415Z,13.40
2019-05-10T00:20:36.317Z,13.40
2019-05-10T00:23:06.924Z,13.40
2019-05-10T00:25:36.878Z,13.40
2019-05-10T00:28:06.682Z,13.40
2019-05-10T00:30:36.565Z,13.40
2019-05-10T00:33:06.434Z,13.40
2019-05-10T00:35:36.201Z,13.40
2019-05-10T00:38:05.985Z,13.40
2019-05-10T00:40:35.869Z,13.50
2019-05-10T00:43:05.637Z,13.40
2019-05-10T00:45:35.436Z,13.50
2019-05-10T00:48:05.189Z,13.50
2019-05-10T00:50:34.981Z,13.50
2019-05-10T00:53:04.950Z,13.50
2019-05-10T00:55:34.841Z,13.50
2019-05-10T00:58:04.697Z,13.50
2019-05-10T01:00:35.589Z,13.50
2019-05-10T01:03:06.102Z,13.50
2019-05-10T01:05:35.910Z,13.50
2019-05-10T01:08:05.873Z,13.50
2019-05-10T01:10:35.773Z,13.60
2019-05-10T01:13:05.546Z,13.60
2019-05-10T01:15:35.321Z,13.50
2019-05-10T01:18:05.221Z,13.50
2019-05-10T01:20:36.149Z,13.60
2019-05-10T01:23:06.085Z,13.50
2019-05-10T01:25:36.075Z,13.60
2019-05-10T01:28:06.318Z,13.50
2019-05-10T01:33:10.017Z,13.50
2019-05-10T01:35:39.934Z,13.50
2019-05-10T01:38:09.701Z,13.50
2019-05-10T01:40:39.570Z,13.50
2019-05-10T01:43:09.344Z,13.50
2019-05-10T01:45:39.170Z,13.50
2019-05-10T01:48:09.046Z,13.50
2019-05-10T01:50:38.861Z,13.50
2019-05-10T01:53:08.638Z,13.50
2019-05-10T01:55:50.888Z,13.50
2019-05-10T01:58:10.221Z,13.40
2019-05-10T02:00:39.989Z,13.40
2019-05-10T02:03:09.874Z,13.40
2019-05-10T02:05:40.847Z,13.40
2019-05-10T02:08:10.754Z,13.40
2019-05-10T02:10:40.917Z,13.40
2019-05-10T02:13:11.449Z,13.40
2019-05-10T02:15:41.256Z,13.40
2019-05-10T02:18:11.779Z,13.40
2019-05-10T02:20:41.681Z,13.40
2019-05-10T02:23:11.637Z,13.40
2019-05-10T02:25:41.412Z,13.30
2019-05-10T02:28:11.503Z,13.30
2019-05-10T02:30:41.423Z,13.30
2019-05-10T02:33:11.225Z,13.30
2019-05-10T02:35:41.202Z,13.30
2019-05-10T02:38:11.765Z,13.30
2019-05-10T02:40:41.663Z,13.30
2019-05-10T02:43:11.530Z,13.30
2019-05-10T02:45:42.328Z,13.30
2019-05-10T02:48:12.170Z,13.30
2019-05-10T02:50:41.943Z,13.30
2019-05-10T02:53:12.013Z,13.30
2019-05-10T02:55:41.788Z,13.30
2019-05-10T02:58:15.122Z,13.30
2019-05-10T03:00:46.379Z,13.20
2019-05-10T03:03:17.535Z,13.30
2019-05-10T03:05:49.428Z,13.30
2019-05-10T03:08:19.237Z,13.20
2019-05-10T03:10:57.230Z,13.30
2019-05-10T03:13:31.460Z,13.20
2019-05-10T03:16:04.656Z,13.20
2019-05-10T03:18:35.394Z,13.20
2019-05-10T03:21:08.581Z,13.20
2019-05-10T03:23:38.630Z,13.20
2019-05-10T03:26:09.231Z,13.20
2019-05-10T03:28:39.035Z,13.20
2019-05-10T03:31:08.914Z,13.20
2019-05-10T03:33:38.887Z,13.20
2019-05-10T03:36:09.210Z,13.20
2019-05-10T03:38:39.787Z,13.10
2019-05-10T03:41:09.723Z,13.10
2019-05-10T03:43:39.493Z,13.20
2019-05-10T03:46:09.373Z,13.20
2019-05-10T03:48:39.175Z,13.20
2019-05-10T03:51:09.076Z,13.10
2019-05-10T03:53:38.894Z,13.20
2019-05-10T03:56:08.714Z,13.10
2019-05-10T03:58:38.807Z,13.20
2019-05-10T04:01:08.580Z,13.20
2019-05-10T04:03:38.426Z,13.20
2019-05-10T04:06:08.241Z,13.10
2019-05-10T04:08:38.142Z,13.10
2019-05-10T04:11:07.954Z,13.10
2019-05-10T04:13:37.765Z,13.10
2019-05-10T04:16:07.645Z,13.10
2019-05-10T04:18:37.457Z,13.10
2019-05-10T04:21:07.328Z,13.10
2019-05-10T04:23:37.091Z,13.10
2019-05-10T04:26:07.555Z,13.10
2019-05-10T04:28:37.557Z,13.10
2019-05-10T04:31:07.437Z,13.10
2019-05-10T04:33:38.222Z,13.10
2019-05-10T04:36:12.337Z,13.10
2019-05-10T04:38:39.554Z,13.10
2019-05-10T04:41:09.581Z,13.10
2019-05-10T04:43:39.593Z,13.10
2019-05-10T04:46:09.486Z,13.10
2019-05-10T04:48:39.310Z,13.10
2019-05-10T04:51:09.217Z,13.10
2019-05-10T04:53:39.042Z,13.10
2019-05-10T04:56:08.886Z,13.20
2019-05-10T04:58:38.820Z,13.10
2019-05-10T05:01:08.636Z,13.20
2019-05-10T05:03:38.554Z,13.20
2019-05-10T05:06:09.037Z,13.20
2019-05-10T05:08:38.918Z,13.30
2019-05-10T05:11:08.715Z,13.30
2019-05-10T05:13:38.524Z,13.40
2019-05-10T05:16:08.432Z,13.40
2019-05-10T05:18:38.275Z,13.40
2019-05-10T05:21:08.373Z,13.40
2019-05-10T05:23:38.390Z,13.40
2019-05-10T05:26:08.329Z,13.50
2019-05-10T05:28:38.141Z,13.50
2019-05-10T05:31:08.050Z,13.60
2019-05-10T05:33:37.832Z,13.60
2019-05-10T05:36:07.957Z,13.60
2019-05-10T05:38:40.525Z,13.70
2019-05-10T05:41:09.341Z,13.70
2019-05-10T05:43:45.819Z,13.70
2019-05-10T05:46:14.170Z,13.80
2019-05-10T05:48:42.298Z,13.80
2019-05-10T05:51:12.125Z,13.80
2019-05-10T05:53:44.708Z,13.80
2019-05-10T05:56:14.640Z,13.80
2019-05-10T05:58:47.105Z,13.80
2019-05-10T06:01:26.377Z,13.90
2019-05-10T06:03:48.509Z,13.90
2019-05-10T06:06:21.744Z,13.90
2019-05-10T06:08:54.451Z,13.90
2019-05-10T06:11:21.417Z,13.90
2019-05-10T06:13:51.245Z,14.00
2019-05-10T06:16:22.336Z,14.00
2019-05-10T06:18:52.313Z,14.00
2019-05-10T06:21:25.161Z,14.10
2019-05-10T06:23:53.674Z,14.10
2019-05-10T06:26:28.364Z,14.20
2019-05-10T06:28:59.409Z,14.30
2019-05-10T06:31:26.856Z,14.50
2019-05-10T06:33:56.790Z,14.60
2019-05-10T06:36:26.677Z,14.90
2019-05-10T06:38:56.601Z,15.10
2019-05-10T06:41:26.421Z,15.50
2019-05-10T06:43:56.238Z,15.80
2019-05-10T06:46:29.716Z,16.20
2019-05-10T06:49:07.225Z,16.50
2019-05-10T06:51:29.177Z,16.70
2019-05-10T06:53:59.005Z,16.80
2019-05-10T06:56:28.880Z,16.80
2019-05-10T06:59:12.408Z,16.70
2019-05-10T07:01:30.381Z,16.70
2019-05-10T07:04:00.261Z,16.70
2019-05-10T07:06:31.101Z,16.70
2019-05-10T07:09:00.894Z,16.70
2019-05-10T07:11:32.459Z,16.80
2019-05-10T07:14:02.261Z,16.80
2019-05-10T07:16:32.053Z,16.90
2019-05-10T07:19:02.253Z,17.10
2019-05-10T07:21:32.306Z,17.40
2019-05-10T07:24:02.830Z,17.60
2019-05-10T07:26:32.645Z,17.80
2019-05-10T07:29:02.527Z,18.00
2019-05-10T07:31:32.345Z,18.30
2019-05-10T07:34:02.129Z,18.60
2019-05-10T07:36:32.015Z,18.90
2019-05-10T07:39:02.688Z,19.30
2019-05-10T07:41:33.566Z,19.50
2019-05-10T07:44:07.686Z,19.60
2019-05-10T07:46:40.027Z,19.60
2019-05-10T07:49:08.005Z,19.50
2019-05-10T07:51:37.897Z,19.30
2019-05-10T07:54:07.783Z,19.20
2019-05-10T07:56:38.869Z,19.00
2019-05-10T07:59:09.350Z,18.70
2019-05-10T08:01:39.156Z,18.50
2019-05-10T08:04:10.017Z,18.30
2019-05-10T08:06:47.550Z,18.10
2019-05-10T08:09:12.126Z,17.90
2019-05-10T08:11:41.937Z,17.90
2019-05-10T08:14:11.818Z,18.00
2019-05-10T08:16:41.661Z,18.40
2019-05-10T08:19:11.486Z,19.00
2019-05-10T08:21:42.204Z,19.60
2019-05-10T08:24:16.119Z,20.40
2019-05-10T08:26:43.604Z,21.20
2019-05-10T08:29:16.745Z,22.00
2019-05-10T08:31:52.626Z,22.50
2019-05-10T08:34:17.296Z,22.70
2019-05-10T08:36:47.858Z,22.70
2019-05-10T08:39:17.778Z,22.80
2019-05-10T08:42:03.600Z,23.00
2019-05-10T08:44:21.126Z,23.20
2019-05-10T08:46:52.525Z,23.50
2019-05-10T08:49:31.187Z,23.80
2019-05-10T08:51:54.270Z,24.00
2019-05-10T08:54:26.560Z,24.00
2019-05-10T08:59:43.817Z,23.70
2019-05-10T09:02:14.720Z,23.30
2019-05-10T09:04:49.873Z,22.90
2019-05-10T09:07:16.086Z,22.70
2019-05-10T09:09:49.995Z,22.60
2019-05-10T09:12:18.473Z,22.60
2019-05-10T09:14:48.819Z,22.80
2019-05-10T09:17:23.737Z,23.10
2019-05-10T09:19:51.795Z,23.20
2019-05-10T09:22:29.571Z,23.30
2019-05-10T09:24:53.299Z,23.40
2019-05-10T09:27:23.340Z,23.50
2019-05-10T09:29:53.222Z,23.40
2019-05-10T09:32:28.630Z,23.20
2019-05-10T09:34:59.646Z,22.80
2019-05-10T09:37:27.810Z,22.40
2019-05-10T09:40:06.067Z,22.30
2019-05-10T09:42:34.832Z,22.20
2019-05-10T09:45:03.083Z,22.10
2019-05-10T09:47:32.999Z,21.90
2019-05-10T09:50:03.038Z,21.80
2019-05-10T09:52:32.910Z,21.80
2019-05-10T09:55:04.078Z,21.80
2019-05-10T09:57:34.311Z,21.80
2019-05-10T10:00:07.405Z,21.90
2019-05-10T10:02:40.611Z,21.80
2019-05-10T10:05:09.241Z,21.70
2019-05-10T10:07:39.065Z,21.60
2019-05-10T10:10:12.645Z,21.50
2019-05-10T10:12:40.725Z,21.40
2019-05-10T10:15:18.815Z,21.30
2019-05-10T10:17:43.729Z,21.00
2019-05-10T10:20:13.549Z,20.80
2019-05-10T10:22:48.624Z,20.60
2019-05-10T10:25:14.899Z,20.50
2019-05-10T10:27:44.778Z,20.40
2019-05-10T10:30:19.007Z,20.40
2019-05-10T10:32:47.699Z,20.30
2019-05-10T10:35:23.153Z,20.40
2019-05-10T10:37:49.142Z,20.50
2019-05-10T10:40:20.070Z,20.60
2019-05-10T10:42:49.948Z,20.60
2019-05-10T10:45:20.158Z,20.60
2019-05-10T10:47:50.051Z,20.60
2019-05-10T10:50:19.953Z,20.70
2019-05-10T10:52:49.803Z,20.80
2019-05-10T10:55:19.715Z,21.00
2019-05-10T10:57:49.625Z,21.10
2019-05-10T11:00:33.712Z,21.30
2019-05-10T11:03:04.970Z,21.40
2019-05-10T11:05:34.797Z,21.40
2019-05-10T11:08:04.610Z,21.40
2019-05-10T11:10:34.502Z,21.40
2019-05-10T11:13:12.018Z,21.40
2019-05-10T11:15:36.595Z,21.40
2019-05-10T11:18:06.631Z,21.40
2019-05-10T11:20:36.436Z,21.40
2019-05-10T11:23:06.321Z,21.40
2019-05-10T11:25:36.146Z,21.30
2019-05-10T11:28:09.052Z,21.30
2019-05-10T11:30:37.554Z,21.20
2019-05-10T11:33:22.877Z,21.10
2019-05-10T11:35:41.508Z,21.10
2019-05-10T11:38:12.919Z,21.00
2019-05-10T11:40:42.153Z,20.90
2019-05-10T11:43:12.220Z,20.80
2019-05-10T11:45:44.191Z,20.70
2019-05-10T11:48:13.633Z,20.70
2019-05-10T11:50:43.534Z,20.60
2019-05-10T11:53:17.196Z,20.50
2019-05-10T11:55:44.927Z,20.40
2019-05-10T11:58:14.795Z,20.30
2019-05-10T12:00:44.691Z,20.20
2019-05-10T12:03:18.402Z,20.10
2019-05-10T12:05:53.231Z,20.10
2019-05-10T12:08:17.742Z,20.10
2019-05-10T12:13:23.758Z,20.10
2019-05-10T12:15:52.065Z,20.10
2019-05-10T12:18:26.885Z,20.10
2019-05-10T12:21:03.928Z,20.10
2019-05-10T12:23:31.092Z,20.10
2019-05-10T12:26:18.653Z,20.20
2019-05-10T12:27:09.343Z,20.10
2019-05-10T12:28:33.567Z,20.10
2019-05-10T12:31:01.408Z,20.10
2019-05-10T12:33:32.350Z,20.20
2019-05-10T12:36:02.168Z,20.20
2019-05-10T12:38:35.663Z,20.20
2019-05-10T12:41:05.423Z,20.20
2019-05-10T12:43:35.210Z,20.20
2019-05-10T12:46:05.900Z,20.10
2019-05-10T12:48:36.077Z,20.10
2019-05-10T12:51:11.393Z,20.10
2019-05-10T12:53:44.592Z,20.20
2019-05-10T12:56:09.035Z,20.30
2019-05-10T12:58:38.976Z,20.40
2019-05-10T13:01:08.786Z,20.50
2019-05-10T13:03:38.691Z,20.50
2019-05-10T13:06:08.506Z,20.60
2019-05-10T13:08:38.515Z,20.70
2019-05-10T13:11:08.426Z,20.80
2019-05-10T13:13:38.218Z,20.90
2019-05-10T13:16:09.935Z,21.00
2019-05-10T13:18:50.246Z,21.10
2019-05-10T13:21:20.008Z,21.10
2019-05-10T13:23:43.276Z,21.20
2019-05-10T13:26:13.171Z,21.30
2019-05-10T13:28:43.146Z,21.40
2019-05-10T13:31:15.114Z,21.40
2019-05-10T13:33:45.939Z,21.50
2019-05-10T13:36:15.749Z,21.60
2019-05-10T13:38:49.190Z,21.60
2019-05-10T13:41:17.976Z,21.60
2019-05-10T13:43:48.669Z,21.60
2019-05-10T13:46:18.627Z,21.60
2019-05-10T13:48:48.562Z,21.50
2019-05-10T13:51:18.372Z,21.40
2019-05-10T13:53:48.194Z,21.30
2019-05-10T13:56:18.043Z,21.30
2019-05-10T13:58:47.983Z,21.40
2019-05-10T14:01:17.863Z,21.40
2019-05-10T14:03:53.831Z,21.40
2019-05-10T14:06:19.241Z,21.40
2019-05-10T14:08:50.515Z,21.50
2019-05-10T14:11:20.481Z,21.50
2019-05-10T14:13:50.302Z,21.70
2019-05-10T14:16:22.407Z,21.70
2019-05-10T14:18:51.762Z,21.80
2019-05-10T14:21:21.666Z,21.90
2019-05-10T14:23:51.593Z,21.90
2019-05-10T14:26:21.425Z,21.80
2019-05-10T14:28:53.121Z,21.80
2019-05-10T14:31:22.756Z,21.70
2019-05-10T14:36:24.253Z,21.70
2019-05-10T14:38:56.153Z,21.70
2019-05-10T14:41:25.734Z,21.60
2019-05-10T14:43:56.602Z,21.50
2019-05-10T14:46:26.486Z,21.50
2019-05-10T14:48:56.379Z,21.40
2019-05-10T14:51:40.414Z,21.40
2019-05-10T14:54:06.053Z,21.30
2019-05-10T14:56:29.359Z,21.30
2019-05-10T14:58:59.162Z,21.40
2019-05-10T15:01:28.957Z,21.40
2019-05-10T15:03:58.924Z,21.40
2019-05-10T15:06:30.858Z,21.50
2019-05-10T15:09:00.222Z,21.50
2019-05-10T15:11:31.639Z,21.60
2019-05-10T15:14:01.552Z,21.50
2019-05-10T15:16:31.454Z,21.50
2019-05-10T15:19:01.346Z,21.40
2019-05-10T15:21:34.550Z,21.30
2019-05-10T15:24:03.571Z,21.20
2019-05-10T15:26:37.411Z,21.10
2019-05-10T15:29:05.183Z,21.00
2019-05-10T15:31:35.047Z,21.00
2019-05-10T15:34:05.399Z,20.90
2019-05-10T15:36:35.329Z,20.90
2019-05-10T15:39:06.932Z,20.90
2019-05-10T15:41:36.907Z,20.90
2019-05-10T15:44:06.802Z,21.00
2019-05-10T15:46:41.504Z,21.00
2019-05-10T15:49:08.238Z,21.00
2019-05-10T15:51:38.074Z,21.00
2019-05-10T15:54:07.929Z,20.90
2019-05-10T15:56:41.708Z,20.90
2019-05-10T15:59:12.617Z,20.80
2019-05-10T16:01:40.822Z,20.70
2019-05-10T16:04:10.775Z,20.70
2019-05-10T16:06:40.553Z,20.60
2019-05-10T16:09:17.530Z,20.60
2019-05-10T16:11:42.142Z,20.50
2019-05-10T16:14:12.148Z,20.50
2019-05-10T16:16:42.632Z,20.40
2019-05-10T16:19:18.756Z,20.40
2019-05-10T16:21:46.799Z,20.30
2019-05-10T16:24:25.556Z,20.20
2019-05-10T16:26:47.284Z,20.10
2019-05-10T16:29:17.097Z,20.10
2019-05-10T16:31:47.000Z,20.10
2019-05-10T16:34:16.810Z,20.10
2019-05-10T16:36:46.586Z,20.00
2019-05-10T16:39:16.470Z,20.00
2019-05-10T16:41:47.022Z,19.90
2019-05-10T16:44:17.022Z,19.80
2019-05-10T16:46:46.790Z,19.70
2019-05-10T16:49:17.354Z,19.60
2019-05-10T16:51:49.649Z,19.50
2019-05-10T16:54:24.208Z,19.40
2019-05-10T16:56:51.689Z,19.30
2019-05-10T16:59:24.372Z,19.20
2019-05-10T17:02:03.147Z,19.10
2019-05-10T17:04:24.790Z,19.00
2019-05-10T17:06:58.330Z,19.00
2019-05-10T17:09:26.081Z,18.90
2019-05-10T17:11:59.085Z,18.90
2019-05-10T17:14:28.130Z,18.90
2019-05-10T17:16:59.804Z,18.80
2019-05-10T17:19:34.217Z,18.80
2019-05-10T17:22:00.940Z,18.80
2019-05-10T17:24:30.710Z,18.70
2019-05-10T17:27:00.591Z,18.70
2019-05-10T17:29:30.381Z,18.70
2019-05-10T17:32:00.265Z,18.70
2019-05-10T17:34:30.074Z,18.70
2019-05-10T17:36:59.979Z,18.70
2019-05-10T17:39:32.249Z,18.70
2019-05-10T17:42:03.076Z,18.70
2019-05-10T17:44:33.575Z,18.60
2019-05-10T17:47:03.454Z,18.60
2019-05-10T17:49:34.038Z,18.60
2019-05-10T17:52:03.898Z,18.50
2019-05-10T17:54:38.849Z,18.50
2019-05-10T17:57:05.155Z,18.50
2019-05-10T17:59:35.102Z,18.40
2019-05-10T18:02:04.896Z,18.40
2019-05-10T18:04:34.657Z,18.30
2019-05-10T18:07:04.446Z,18.30
2019-05-10T18:09:34.223Z,18.20
2019-05-10T18:12:04.045Z,18.20
2019-05-10T18:14:33.854Z,18.20
2019-05-10T18:17:06.994Z,18.10
2019-05-10T18:19:35.131Z,18.10
2019-05-10T18:22:06.360Z,18.00
2019-05-10T18:24:41.467Z,18.00
2019-05-10T18:27:09.026Z,17.90
2019-05-10T18:29:38.803Z,17.90
2019-05-10T18:32:10.966Z,17.80
2019-05-10T18:34:40.170Z,17.70
2019-05-10T18:37:09.978Z,17.70
2019-05-10T18:39:39.754Z,17.60
2019-05-10T18:42:09.563Z,17.60
2019-05-10T18:44:39.449Z,17.50
2019-05-10T18:47:09.222Z,17.40
2019-05-10T18:49:39.102Z,17.30
2019-05-10T18:52:08.866Z,17.30
2019-05-10T18:54:38.720Z,17.20
2019-05-10T18:57:12.203Z,17.20
2019-05-10T18:59:45.381Z,17.10
2019-05-10T19:02:17.133Z,17.10
2019-05-10T19:04:45.680Z,17.10
2019-05-10T19:07:14.881Z,17.00
2019-05-10T19:09:44.694Z,17.00
2019-05-10T19:12:18.915Z,16.90
2019-05-10T19:14:46.762Z,16.90
2019-05-10T19:17:16.542Z,16.80
2019-05-10T19:19:47.374Z,16.80
2019-05-10T19:22:17.267Z,16.70
2019-05-10T19:24:47.089Z,16.60
2019-05-10T19:27:16.997Z,16.60
2019-05-10T19:29:47.932Z,16.50
2019-05-10T19:32:19.992Z,16.50
2019-05-10T19:34:57.146Z,16.40
2019-05-10T19:37:31.516Z,16.40
2019-05-10T19:39:52.432Z,16.40
2019-05-10T19:42:22.306Z,16.30
2019-05-10T19:44:52.122Z,16.30
2019-05-10T19:47:21.894Z,16.30
2019-05-10T19:49:53.373Z,16.20
2019-05-10T19:52:25.970Z,16.20
2019-05-10T19:54:55.932Z,16.20
2019-05-10T19:57:25.793Z,16.20
2019-05-10T19:59:55.565Z,16.20
2019-05-10T20:02:25.535Z,16.10
2019-05-10T20:04:55.320Z,16.10
2019-05-10T20:07:25.210Z,16.00
2019-05-10T20:09:55.030Z,16.00
2019-05-10T20:12:24.855Z,15.90
2019-05-10T20:14:55.622Z,15.80
2019-05-10T20:17:25.532Z,15.80
2019-05-10T20:19:55.474Z,15.70
2019-05-10T20:22:25.326Z,15.60
2019-05-10T20:24:55.936Z,15.50
2019-05-10T20:27:25.806Z,15.50
2019-05-10T20:29:55.690Z,15.40
2019-05-10T20:32:25.510Z,15.30
2019-05-10T20:34:55.326Z,15.30
2019-05-10T20:37:25.137Z,15.20
2019-05-10T20:39:54.947Z,15.10
2019-05-10T20:42:25.578Z,15.10
2019-05-10T20:45:06.821Z,15.00
2019-05-10T20:47:26.848Z,14.90
2019-05-10T20:49:56.717Z,14.90
2019-05-10T20:52:26.494Z,14.90
2019-05-10T20:54:56.316Z,14.80
2019-05-10T20:57:26.137Z,14.80
2019-05-10T20:59:56.068Z,14.70
2019-05-10T21:02:26.939Z,14.70
2019-05-10T21:04:56.716Z,14.60
2019-05-10T21:07:26.594Z,14.60
2019-05-10T21:09:56.495Z,14.50
2019-05-10T21:12:26.319Z,14.40
2019-05-10T21:14:56.085Z,14.30
2019-05-10T21:17:25.906Z,14.30
2019-05-10T21:19:55.718Z,14.20
2019-05-10T21:22:26.444Z,14.10
2019-05-10T21:24:57.181Z,14.00
2019-05-10T21:27:27.006Z,13.90
2019-05-10T21:29:57.051Z,13.80
2019-05-10T21:32:26.834Z,13.70
2019-05-10T21:34:56.637Z,13.70
2019-05-10T21:37:26.723Z,13.60
2019-05-10T21:39:56.666Z,13.50
2019-05-10T21:42:26.603Z,13.50
2019-05-10T21:44:56.402Z,13.40
2019-05-10T21:47:27.242Z,13.40
2019-05-10T21:49:57.053Z,13.30
2019-05-10T21:52:26.931Z,13.30
2019-05-10T21:54:57.569Z,13.20
2019-05-10T21:57:27.424Z,13.10
2019-05-10T21:59:57.281Z,13.10
2019-05-10T22:02:27.145Z,13.10
2019-05-10T22:04:57.978Z,13.10
2019-05-10T22:07:27.904Z,13.20
2019-05-10T22:09:57.781Z,13.10
2019-05-10T22:12:27.729Z,13.20
2019-05-10T22:14:57.622Z,13.20
2019-05-10T22:17:27.560Z,13.20
2019-05-10T22:19:57.419Z,13.20
2019-05-10T22:22:27.329Z,13.20
2019-05-10T22:24:57.336Z,13.30
2019-05-10T22:27:27.895Z,13.30
2019-05-10T22:29:57.708Z,13.30
2019-05-10T22:32:27.548Z,13.30
2019-05-10T22:34:57.413Z,13.30
2019-05-10T22:37:27.358Z,13.30
2019-05-10T22:39:57.169Z,13.30
2019-05-10T22:42:27.124Z,13.30
2019-05-10T22:44:57.052Z,13.40
2019-05-10T22:47:26.946Z,13.40
2019-05-10T22:49:56.930Z,13.40
2019-05-10T22:52:26.853Z,13.30
2019-05-10T22:55:00.141Z,13.40
2019-05-10T22:57:28.264Z,13.30
2019-05-10T22:59:58.170Z,13.30
2019-05-10T23:02:28.022Z,13.30
2019-05-10T23:04:58.729Z,13.30
2019-05-10T23:07:29.330Z,13.30
2019-05-10T23:09:59.233Z,13.30
2019-05-10T23:12:30.927Z,13.30
2019-05-10T23:15:01.536Z,13.40
2019-05-10T23:17:31.435Z,13.40
2019-05-10T23:20:01.367Z,13.40
2019-05-10T23:22:31.336Z,13.40
2019-05-10T23:25:01.187Z,13.50
2019-05-10T23:27:31.175Z,13.50
2019-05-10T23:30:01.105Z,13.50
2019-05-10T23:32:30.993Z,13.50
2019-05-10T23:35:00.855Z,13.40
2019-05-10T23:37:30.710Z,13.40
2019-05-10T23:40:00.554Z,13.40
2019-05-10T23:42:31.126Z,13.30
2019-05-10T23:45:00.981Z,13.30
2019-05-10T23:47:31.907Z,13.20
2019-05-10T23:50:01.967Z,13.10
2019-05-10T23:52:31.885Z,13.10
2019-05-10T23:55:01.822Z,13.00
2019-05-10T23:57:31.666Z,13.00
